sensor_id;sensor_type;location;lat;lon;timestamp;temperature;humidity
16767;DHT22;8501;49.926;8.404;2022-09-09T00:00:47;18.90;99.90
16767;DHT22;8501;49.926;8.404;2022-09-09T00:03:17;18.80;99.90
16767;DHT22;8501;49.926;8.404;2022-09-09T00:06:03;18.90;99.90
16767;DHT22;8501;49.926;8.404;2022-09-09T00:08:45;18.90;99.90
16767;DHT22;8501;49.926;8.404;2022-09-09T00:11:21;18.90;99.90
16767;DHT22;8501;49.926;8.404;2022-09-09T00:13:52;18.80;99.90
16767;DHT22;8501;49.926;8.404;2022-09-09T00:16:25;18.80;99.90
16767;DHT22;8501;49.926;8.404;2022-09-09T00:21:51;18.80;99.90
16767;DHT22;8501;49.926;8.404;2022-09-09T00:24:52;18.80;99.90
16767;DHT22;8501;49.926;8.404;2022-09-09T00:27:33;18.70;99.90
16767;DHT22;8501;49.926;8.404;2022-09-09T00:30:17;18.70;99.90
16767;DHT22;8501;49.926;8.404;2022-09-09T00:32:49;18.70;99.90
16767;DHT22;8501;49.926;8.404;2022-09-09T00:35:31;18.70;99.90
16767;DHT22;8501;49.926;8.404;2022-09-09T00:38:03;18.70;99.90
16767;DHT22;8501;49.926;8.404;2022-09-09T00:40:37;18.70;99.90
16767;DHT22;8501;49.926;8.404;2022-09-09T00:43:16;18.60;99.90
16767;DHT22;8501;49.926;8.404;2022-09-09T00:51:59;18.60;99.90
16767;DHT22;8501;49.926;8.404;2022-09-09T00:57:35;18.40;99.90
16767;DHT22;8501;49.926;8.404;2022-09-09T01:03:22;18.40;99.90
16767;DHT22;8501;49.926;8.404;2022-09-09T01:06:00;18.40;99.90
16767;DHT22;8501;49.926;8.404;2022-09-09T01:11:33;18.20;99.90
16767;DHT22;8501;49.926;8.404;2022-09-09T01:14:13;18.30;99.90
16767;DHT22;8501;49.926;8.404;2022-09-09T01:16:43;18.30;99.90
16767;DHT22;8501;49.926;8.404;2022-09-09T01:19:18;18.20;99.90
16767;DHT22;8501;49.926;8.404;2022-09-09T01:26:59;18.20;99.90
16767;DHT22;8501;49.926;8.404;2022-09-09T01:29:26;18.10;99.90
16767;DHT22;8501;49.926;8.404;2022-09-09T01:34:31;18.20;99.90
16767;DHT22;8501;49.926;8.404;2022-09-09T01:37:10;18.10;99.90
16767;DHT22;8501;49.926;8.404;2022-09-09T01:39:40;18.10;99.90
16767;DHT22;8501;49.926;8.404;2022-09-09T01:42:09;18.00;99.90
16767;DHT22;8501;49.926;8.404;2022-09-09T01:44:38;18.00;99.90
16767;DHT22;8501;49.926;8.404;2022-09-09T01:47:04;18.00;99.90
16767;DHT22;8501;49.926;8.404;2022-09-09T01:49:30;18.00;99.90
16767;DHT22;8501;49.926;8.404;2022-09-09T01:51:57;17.90;99.90
16767;DHT22;8501;49.926;8.404;2022-09-09T01:54:27;17.90;99.90
16767;DHT22;8501;49.926;8.404;2022-09-09T01:57:15;17.90;99.90
16767;DHT22;8501;49.926;8.404;2022-09-09T02:00:05;17.90;99.90
16767;DHT22;8501;49.926;8.404;2022-09-09T02:03:04;17.90;99.90
16767;DHT22;8501;49.926;8.404;2022-09-09T02:05:42;17.90;99.90
16767;DHT22;8501;49.926;8.404;2022-09-09T02:08:20;17.90;99.90
16767;DHT22;8501;49.926;8.404;2022-09-09T02:11:01;17.90;99.90
16767;DHT22;8501;49.926;8.404;2022-09-09T02:13:32;17.80;99.90
16767;DHT22;8501;49.926;8.404;2022-09-09T02:16:26;17.90;99.90
16767;DHT22;8501;49.926;8.404;2022-09-09T02:19:06;17.90;99.90
16767;DHT22;8501;49.926;8.404;2022-09-09T02:21:32;17.90;99.90
16767;DHT22;8501;49.926;8.404;2022-09-09T02:24:03;17.80;99.90
16767;DHT22;8501;49.926;8.404;2022-09-09T02:26:31;17.80;99.90
16767;DHT22;8501;49.926;8.404;2022-09-09T02:29:02;17.80;99.90
16767;DHT22;8501;49.926;8.404;2022-09-09T02:31:30;17.90;99.90
16767;DHT22;8501;49.926;8.404;2022-09-09T02:33:59;17.90;99.90
16767;DHT22;8501;49.926;8.404;2022-09-09T02:36:29;17.90;99.90
16767;DHT22;8501;49.926;8.404;2022-09-09T02:38:56;17.90;99.90
16767;DHT22;8501;49.926;8.404;2022-09-09T02:41:32;17.90;99.90
16767;DHT22;8501;49.926;8.404;2022-09-09T02:43:59;17.80;99.90
16767;DHT22;8501;49.926;8.404;2022-09-09T02:46:36;17.80;99.90
16767;DHT22;8501;49.926;8.404;2022-09-09T02:49:10;17.90;99.90
16767;DHT22;8501;49.926;8.404;2022-09-09T02:51:55;17.80;99.90
16767;DHT22;8501;49.926;8.404;2022-09-09T02:57:17;17.80;99.90
16767;DHT22;8501;49.926;8.404;2022-09-09T02:59:45;17.90;99.90
16767;DHT22;8501;49.926;8.404;2022-09-09T03:02:11;17.80;99.90
16767;DHT22;8501;49.926;8.404;2022-09-09T03:04:38;17.80;99.90
16767;DHT22;8501;49.926;8.404;2022-09-09T03:07:04;17.80;99.90
16767;DHT22;8501;49.926;8.404;2022-09-09T03:09:30;17.80;99.90
16767;DHT22;8501;49.926;8.404;2022-09-09T03:11:58;17.80;99.90
16767;DHT22;8501;49.926;8.404;2022-09-09T03:14:23;17.80;99.90
16767;DHT22;8501;49.926;8.404;2022-09-09T03:16:53;17.70;99.90
16767;DHT22;8501;49.926;8.404;2022-09-09T03:19:20;17.80;99.90
16767;DHT22;8501;49.926;8.404;2022-09-09T03:21:46;17.80;99.90
16767;DHT22;8501;49.926;8.404;2022-09-09T03:24:13;17.80;99.90
16767;DHT22;8501;49.926;8.404;2022-09-09T03:26:39;17.90;99.90
16767;DHT22;8501;49.926;8.404;2022-09-09T03:29:06;17.90;99.90
16767;DHT22;8501;49.926;8.404;2022-09-09T03:31:35;17.80;99.90
16767;DHT22;8501;49.926;8.404;2022-09-09T03:34:01;17.80;99.90
16767;DHT22;8501;49.926;8.404;2022-09-09T03:36:27;17.70;99.90
16767;DHT22;8501;49.926;8.404;2022-09-09T03:38:54;17.80;99.90
16767;DHT22;8501;49.926;8.404;2022-09-09T03:41:20;17.80;99.90
16767;DHT22;8501;49.926;8.404;2022-09-09T03:43:47;17.80;99.90
16767;DHT22;8501;49.926;8.404;2022-09-09T03:46:12;17.80;99.90
16767;DHT22;8501;49.926;8.404;2022-09-09T03:48:38;17.80;99.90
16767;DHT22;8501;49.926;8.404;2022-09-09T03:51:03;17.80;99.90
16767;DHT22;8501;49.926;8.404;2022-09-09T03:53:29;17.80;99.90
16767;DHT22;8501;49.926;8.404;2022-09-09T03:55:56;17.70;99.90
16767;DHT22;8501;49.926;8.404;2022-09-09T03:58:25;17.80;99.90
16767;DHT22;8501;49.926;8.404;2022-09-09T04:00:59;17.70;99.90
16767;DHT22;8501;49.926;8.404;2022-09-09T04:03:25;17.70;99.90
16767;DHT22;8501;49.926;8.404;2022-09-09T04:05:54;17.70;99.90
16767;DHT22;8501;49.926;8.404;2022-09-09T04:08:21;17.60;99.90
16767;DHT22;8501;49.926;8.404;2022-09-09T04:10:49;17.70;99.90
16767;DHT22;8501;49.926;8.404;2022-09-09T04:13:16;17.70;99.90
16767;DHT22;8501;49.926;8.404;2022-09-09T04:15:42;17.80;99.90
16767;DHT22;8501;49.926;8.404;2022-09-09T04:18:09;17.70;99.90
16767;DHT22;8501;49.926;8.404;2022-09-09T04:20:34;17.70;99.90
16767;DHT22;8501;49.926;8.404;2022-09-09T04:23:01;17.70;99.90
16767;DHT22;8501;49.926;8.404;2022-09-09T04:25:26;17.80;99.90
16767;DHT22;8501;49.926;8.404;2022-09-09T04:27:55;17.80;99.90
16767;DHT22;8501;49.926;8.404;2022-09-09T04:30:22;17.80;99.90
16767;DHT22;8501;49.926;8.404;2022-09-09T04:32:47;17.80;99.90
16767;DHT22;8501;49.926;8.404;2022-09-09T04:35:13;17.70;99.90
16767;DHT22;8501;49.926;8.404;2022-09-09T04:37:38;17.70;99.90
16767;DHT22;8501;49.926;8.404;2022-09-09T04:40:05;17.70;99.90
16767;DHT22;8501;49.926;8.404;2022-09-09T04:42:35;17.60;99.90
16767;DHT22;8501;49.926;8.404;2022-09-09T04:45:01;17.70;99.90
16767;DHT22;8501;49.926;8.404;2022-09-09T04:47:26;17.70;99.90
16767;DHT22;8501;49.926;8.404;2022-09-09T04:49:52;17.70;99.90
16767;DHT22;8501;49.926;8.404;2022-09-09T04:52:20;17.60;99.90
16767;DHT22;8501;49.926;8.404;2022-09-09T04:54:45;17.60;99.90
16767;DHT22;8501;49.926;8.404;2022-09-09T04:57:11;17.60;99.90
16767;DHT22;8501;49.926;8.404;2022-09-09T04:59:37;17.60;99.90
16767;DHT22;8501;49.926;8.404;2022-09-09T05:02:02;17.60;99.90
16767;DHT22;8501;49.926;8.404;2022-09-09T05:04:28;17.50;99.90
16767;DHT22;8501;49.926;8.404;2022-09-09T05:06:54;17.50;99.90
16767;DHT22;8501;49.926;8.404;2022-09-09T05:09:19;17.60;99.90
16767;DHT22;8501;49.926;8.404;2022-09-09T05:11:45;17.50;99.90
16767;DHT22;8501;49.926;8.404;2022-09-09T05:14:11;17.50;99.90
16767;DHT22;8501;49.926;8.404;2022-09-09T05:16:37;17.50;99.90
16767;DHT22;8501;49.926;8.404;2022-09-09T05:19:03;17.50;99.90
16767;DHT22;8501;49.926;8.404;2022-09-09T05:21:28;17.50;99.90
16767;DHT22;8501;49.926;8.404;2022-09-09T05:23:56;17.50;99.90
16767;DHT22;8501;49.926;8.404;2022-09-09T05:26:22;17.50;99.90
16767;DHT22;8501;49.926;8.404;2022-09-09T05:28:48;17.40;99.90
16767;DHT22;8501;49.926;8.404;2022-09-09T05:31:15;17.40;99.90
16767;DHT22;8501;49.926;8.404;2022-09-09T05:33:42;17.40;99.90
16767;DHT22;8501;49.926;8.404;2022-09-09T05:36:11;17.40;99.90
16767;DHT22;8501;49.926;8.404;2022-09-09T05:38:39;17.50;99.90
16767;DHT22;8501;49.926;8.404;2022-09-09T05:41:05;17.40;99.90
16767;DHT22;8501;49.926;8.404;2022-09-09T05:43:30;17.40;99.90
16767;DHT22;8501;49.926;8.404;2022-09-09T05:46:03;17.40;99.90
16767;DHT22;8501;49.926;8.404;2022-09-09T05:48:31;17.50;99.90
16767;DHT22;8501;49.926;8.404;2022-09-09T05:50:57;17.50;99.90
16767;DHT22;8501;49.926;8.404;2022-09-09T05:53:23;17.50;99.90
16767;DHT22;8501;49.926;8.404;2022-09-09T05:55:48;17.50;99.90
16767;DHT22;8501;49.926;8.404;2022-09-09T05:58:14;17.40;99.90
16767;DHT22;8501;49.926;8.404;2022-09-09T06:00:42;17.40;99.90
16767;DHT22;8501;49.926;8.404;2022-09-09T06:03:11;17.50;99.90
16767;DHT22;8501;49.926;8.404;2022-09-09T06:05:36;17.50;99.90
16767;DHT22;8501;49.926;8.404;2022-09-09T06:08:02;17.50;99.90
16767;DHT22;8501;49.926;8.404;2022-09-09T06:10:28;17.60;99.90
16767;DHT22;8501;49.926;8.404;2022-09-09T06:12:53;17.60;99.90
16767;DHT22;8501;49.926;8.404;2022-09-09T06:15:19;17.60;99.90
16767;DHT22;8501;49.926;8.404;2022-09-09T06:17:45;17.60;99.90
16767;DHT22;8501;49.926;8.404;2022-09-09T06:20:10;17.60;99.90
16767;DHT22;8501;49.926;8.404;2022-09-09T06:22:38;17.60;99.90
16767;DHT22;8501;49.926;8.404;2022-09-09T06:25:04;17.60;99.90
16767;DHT22;8501;49.926;8.404;2022-09-09T06:27:30;17.70;99.90
16767;DHT22;8501;49.926;8.404;2022-09-09T06:29:56;17.70;99.90
16767;DHT22;8501;49.926;8.404;2022-09-09T06:32:21;17.70;99.90
16767;DHT22;8501;49.926;8.404;2022-09-09T06:34:47;17.70;99.90
16767;DHT22;8501;49.926;8.404;2022-09-09T06:37:14;17.70;99.90
16767;DHT22;8501;49.926;8.404;2022-09-09T06:39:40;17.70;99.90
16767;DHT22;8501;49.926;8.404;2022-09-09T06:42:06;17.80;99.90
16767;DHT22;8501;49.926;8.404;2022-09-09T06:44:34;17.90;99.90
16767;DHT22;8501;49.926;8.404;2022-09-09T06:46:59;18.00;99.90
16767;DHT22;8501;49.926;8.404;2022-09-09T06:49:25;18.00;99.90
16767;DHT22;8501;49.926;8.404;2022-09-09T06:51:50;18.00;99.90
16767;DHT22;8501;49.926;8.404;2022-09-09T06:54:17;18.00;99.90
16767;DHT22;8501;49.926;8.404;2022-09-09T06:56:43;18.00;99.90
16767;DHT22;8501;49.926;8.404;2022-09-09T06:59:11;18.10;99.90
16767;DHT22;8501;49.926;8.404;2022-09-09T07:01:42;18.00;99.90
16767;DHT22;8501;49.926;8.404;2022-09-09T07:04:09;18.10;99.90
16767;DHT22;8501;49.926;8.404;2022-09-09T07:06:38;18.10;99.90
16767;DHT22;8501;49.926;8.404;2022-09-09T07:09:08;18.10;99.90
16767;DHT22;8501;49.926;8.404;2022-09-09T07:11:40;18.10;99.90
16767;DHT22;8501;49.926;8.404;2022-09-09T07:14:09;18.20;99.90
16767;DHT22;8501;49.926;8.404;2022-09-09T07:16:39;18.20;99.90
16767;DHT22;8501;49.926;8.404;2022-09-09T07:19:05;18.20;99.90
16767;DHT22;8501;49.926;8.404;2022-09-09T07:21:32;18.20;99.90
16767;DHT22;8501;49.926;8.404;2022-09-09T07:23:59;18.20;99.90
16767;DHT22;8501;49.926;8.404;2022-09-09T07:26:27;18.20;99.90
16767;DHT22;8501;49.926;8.404;2022-09-09T07:28:53;18.20;99.90
16767;DHT22;8501;49.926;8.404;2022-09-09T07:31:21;18.30;99.90
16767;DHT22;8501;49.926;8.404;2022-09-09T07:33:47;18.30;99.90
16767;DHT22;8501;49.926;8.404;2022-09-09T07:36:19;18.40;99.90
16767;DHT22;8501;49.926;8.404;2022-09-09T07:39:03;18.40;99.90
16767;DHT22;8501;49.926;8.404;2022-09-09T07:41:32;18.40;99.90
16767;DHT22;8501;49.926;8.404;2022-09-09T07:43:59;18.40;99.90
16767;DHT22;8501;49.926;8.404;2022-09-09T07:46:26;18.40;99.90
16767;DHT22;8501;49.926;8.404;2022-09-09T07:48:56;18.40;99.90
16767;DHT22;8501;49.926;8.404;2022-09-09T07:51:24;18.50;99.90
16767;DHT22;8501;49.926;8.404;2022-09-09T07:54:00;18.50;99.90
16767;DHT22;8501;49.926;8.404;2022-09-09T07:56:27;18.60;99.90
16767;DHT22;8501;49.926;8.404;2022-09-09T07:58:54;18.70;99.90
16767;DHT22;8501;49.926;8.404;2022-09-09T08:01:23;18.80;99.90
16767;DHT22;8501;49.926;8.404;2022-09-09T08:03:59;18.90;99.90
16767;DHT22;8501;49.926;8.404;2022-09-09T08:06:27;19.10;99.90
16767;DHT22;8501;49.926;8.404;2022-09-09T08:08:54;19.10;99.90
16767;DHT22;8501;49.926;8.404;2022-09-09T08:11:21;19.10;99.90
16767;DHT22;8501;49.926;8.404;2022-09-09T08:13:49;19.10;99.90
16767;DHT22;8501;49.926;8.404;2022-09-09T08:16:18;19.20;99.90
16767;DHT22;8501;49.926;8.404;2022-09-09T08:18:47;19.20;99.90
16767;DHT22;8501;49.926;8.404;2022-09-09T08:21:14;19.20;99.90
16767;DHT22;8501;49.926;8.404;2022-09-09T08:23:43;19.20;99.90
16767;DHT22;8501;49.926;8.404;2022-09-09T08:26:16;19.20;99.90
16767;DHT22;8501;49.926;8.404;2022-09-09T08:28:43;19.20;99.90
16767;DHT22;8501;49.926;8.404;2022-09-09T08:31:14;19.20;99.90
16767;DHT22;8501;49.926;8.404;2022-09-09T08:33:41;19.20;99.90
16767;DHT22;8501;49.926;8.404;2022-09-09T08:36:10;19.20;99.90
16767;DHT22;8501;49.926;8.404;2022-09-09T08:38:37;19.20;99.90
16767;DHT22;8501;49.926;8.404;2022-09-09T08:52:30;19.30;99.90
16767;DHT22;8501;49.926;8.404;2022-09-09T08:55:05;19.30;99.90
16767;DHT22;8501;49.926;8.404;2022-09-09T08:57:38;19.30;99.90
16767;DHT22;8501;49.926;8.404;2022-09-09T09:00:04;19.30;99.90
16767;DHT22;8501;49.926;8.404;2022-09-09T09:03:00;19.30;99.90
16767;DHT22;8501;49.926;8.404;2022-09-09T09:05:37;19.30;99.90
16767;DHT22;8501;49.926;8.404;2022-09-09T09:10:51;19.30;99.90
16767;DHT22;8501;49.926;8.404;2022-09-09T09:13:20;19.30;99.90
16767;DHT22;8501;49.926;8.404;2022-09-09T09:15:54;19.30;99.90
16767;DHT22;8501;49.926;8.404;2022-09-09T09:18:22;19.30;99.90
16767;DHT22;8501;49.926;8.404;2022-09-09T09:23:39;19.40;99.90
16767;DHT22;8501;49.926;8.404;2022-09-09T09:26:07;19.30;99.90
16767;DHT22;8501;49.926;8.404;2022-09-09T09:28:35;19.40;99.90
16767;DHT22;8501;49.926;8.404;2022-09-09T09:31:11;19.30;99.90
16767;DHT22;8501;49.926;8.404;2022-09-09T09:33:51;19.40;99.90
16767;DHT22;8501;49.926;8.404;2022-09-09T09:36:19;19.40;99.90
16767;DHT22;8501;49.926;8.404;2022-09-09T09:38:57;19.50;99.90
16767;DHT22;8501;49.926;8.404;2022-09-09T09:41:38;19.60;99.90
16767;DHT22;8501;49.926;8.404;2022-09-09T09:44:18;19.70;99.90
16767;DHT22;8501;49.926;8.404;2022-09-09T09:46:46;19.70;99.90
16767;DHT22;8501;49.926;8.404;2022-09-09T09:49:12;19.70;99.90
16767;DHT22;8501;49.926;8.404;2022-09-09T09:51:39;19.90;99.90
16767;DHT22;8501;49.926;8.404;2022-09-09T09:54:14;20.00;99.90
16767;DHT22;8501;49.926;8.404;2022-09-09T09:56:41;20.10;99.90
16767;DHT22;8501;49.926;8.404;2022-09-09T09:59:34;20.10;99.90
16767;DHT22;8501;49.926;8.404;2022-09-09T10:02:21;20.00;99.90
16767;DHT22;8501;49.926;8.404;2022-09-09T10:05:01;20.10;99.90
16767;DHT22;8501;49.926;8.404;2022-09-09T10:07:27;20.20;99.90
16767;DHT22;8501;49.926;8.404;2022-09-09T10:09:56;20.30;99.90
16767;DHT22;8501;49.926;8.404;2022-09-09T10:12:35;20.50;99.90
16767;DHT22;8501;49.926;8.404;2022-09-09T10:15:44;20.50;99.90
16767;DHT22;8501;49.926;8.404;2022-09-09T10:24:14;20.70;99.90
16767;DHT22;8501;49.926;8.404;2022-09-09T10:29:47;20.60;99.90
16767;DHT22;8501;49.926;8.404;2022-09-09T10:40:31;20.60;99.90
16767;DHT22;8501;49.926;8.404;2022-09-09T10:45:49;20.70;99.90
16767;DHT22;8501;49.926;8.404;2022-09-09T10:48:37;20.70;99.90
16767;DHT22;8501;49.926;8.404;2022-09-09T10:51:13;20.80;99.90
16767;DHT22;8501;49.926;8.404;2022-09-09T10:54:06;20.80;99.90
16767;DHT22;8501;49.926;8.404;2022-09-09T10:56:36;20.80;99.90
16767;DHT22;8501;49.926;8.404;2022-09-09T10:59:20;20.80;99.90
16767;DHT22;8501;49.926;8.404;2022-09-09T11:04:25;20.70;99.90
16767;DHT22;8501;49.926;8.404;2022-09-09T11:06:54;20.70;99.90
16767;DHT22;8501;49.926;8.404;2022-09-09T11:09:26;20.80;99.90
16767;DHT22;8501;49.926;8.404;2022-09-09T11:11:57;20.70;99.90
16767;DHT22;8501;49.926;8.404;2022-09-09T11:17:11;20.90;99.90
16767;DHT22;8501;49.926;8.404;2022-09-09T11:19:40;21.10;99.90
16767;DHT22;8501;49.926;8.404;2022-09-09T11:22:17;21.20;99.90
16767;DHT22;8501;49.926;8.404;2022-09-09T11:25:04;21.30;99.90
16767;DHT22;8501;49.926;8.404;2022-09-09T11:27:58;21.40;99.90
16767;DHT22;8501;49.926;8.404;2022-09-09T11:30:32;21.40;99.90
16767;DHT22;8501;49.926;8.404;2022-09-09T11:33:15;21.40;99.90
16767;DHT22;8501;49.926;8.404;2022-09-09T11:38:27;21.20;99.90
16767;DHT22;8501;49.926;8.404;2022-09-09T11:41:04;21.30;99.90
16767;DHT22;8501;49.926;8.404;2022-09-09T11:43:38;21.40;99.90
16767;DHT22;8501;49.926;8.404;2022-09-09T11:46:05;21.30;99.90
16767;DHT22;8501;49.926;8.404;2022-09-09T11:48:40;21.30;99.90
16767;DHT22;8501;49.926;8.404;2022-09-09T11:51:30;21.30;99.90
16767;DHT22;8501;49.926;8.404;2022-09-09T11:53:57;21.20;99.90
16767;DHT22;8501;49.926;8.404;2022-09-09T11:56:43;21.20;99.90
16767;DHT22;8501;49.926;8.404;2022-09-09T11:59:27;21.10;99.90
16767;DHT22;8501;49.926;8.404;2022-09-09T12:06:56;21.10;99.90
16767;DHT22;8501;49.926;8.404;2022-09-09T12:09:33;21.20;99.90
16767;DHT22;8501;49.926;8.404;2022-09-09T12:17:28;21.10;99.90
16767;DHT22;8501;49.926;8.404;2022-09-09T12:20:16;21.10;99.90
16767;DHT22;8501;49.926;8.404;2022-09-09T12:23:22;21.00;99.90
16767;DHT22;8501;49.926;8.404;2022-09-09T12:29:02;21.00;99.90
16767;DHT22;8501;49.926;8.404;2022-09-09T12:31:44;20.90;99.90
16767;DHT22;8501;49.926;8.404;2022-09-09T12:36:58;20.80;99.90
16767;DHT22;8501;49.926;8.404;2022-09-09T12:39:36;20.80;99.90
16767;DHT22;8501;49.926;8.404;2022-09-09T12:42:03;20.70;99.90
16767;DHT22;8501;49.926;8.404;2022-09-09T12:44:29;20.60;99.90
16767;DHT22;8501;49.926;8.404;2022-09-09T12:46:56;20.30;99.90
16767;DHT22;8501;49.926;8.404;2022-09-09T12:49:28;20.20;99.90
16767;DHT22;8501;49.926;8.404;2022-09-09T12:51:56;20.10;99.90
16767;DHT22;8501;49.926;8.404;2022-09-09T12:54:22;20.00;99.90
16767;DHT22;8501;49.926;8.404;2022-09-09T12:56:48;20.00;99.90
16767;DHT22;8501;49.926;8.404;2022-09-09T12:59:26;20.00;99.90
16767;DHT22;8501;49.926;8.404;2022-09-09T13:01:59;19.90;99.90
16767;DHT22;8501;49.926;8.404;2022-09-09T13:04:24;19.80;99.90
16767;DHT22;8501;49.926;8.404;2022-09-09T13:06:50;19.90;99.90
16767;DHT22;8501;49.926;8.404;2022-09-09T13:09:18;19.80;99.90
16767;DHT22;8501;49.926;8.404;2022-09-09T13:11:48;19.70;99.90
16767;DHT22;8501;49.926;8.404;2022-09-09T13:14:22;19.80;99.90
16767;DHT22;8501;49.926;8.404;2022-09-09T13:16:56;19.70;99.90
16767;DHT22;8501;49.926;8.404;2022-09-09T13:19:22;19.80;99.90
16767;DHT22;8501;49.926;8.404;2022-09-09T13:21:51;19.90;99.90
16767;DHT22;8501;49.926;8.404;2022-09-09T13:24:32;19.90;99.90
16767;DHT22;8501;49.926;8.404;2022-09-09T13:27:03;20.00;99.90
16767;DHT22;8501;49.926;8.404;2022-09-09T13:29:31;20.20;99.90
16767;DHT22;8501;49.926;8.404;2022-09-09T13:32:05;20.30;99.90
16767;DHT22;8501;49.926;8.404;2022-09-09T13:34:33;20.50;99.90
16767;DHT22;8501;49.926;8.404;2022-09-09T13:37:03;20.70;99.90
16767;DHT22;8501;49.926;8.404;2022-09-09T13:39:32;20.90;99.90
16767;DHT22;8501;49.926;8.404;2022-09-09T13:41:58;21.00;99.90
16767;DHT22;8501;49.926;8.404;2022-09-09T13:44:27;20.90;99.90
16767;DHT22;8501;49.926;8.404;2022-09-09T13:49:42;20.80;99.90
16767;DHT22;8501;49.926;8.404;2022-09-09T13:52:12;20.80;99.90
16767;DHT22;8501;49.926;8.404;2022-09-09T13:54:40;20.80;99.90
16767;DHT22;8501;49.926;8.404;2022-09-09T13:57:05;20.80;99.90
16767;DHT22;8501;49.926;8.404;2022-09-09T13:59:31;20.80;99.90
16767;DHT22;8501;49.926;8.404;2022-09-09T14:01:57;20.80;99.90
16767;DHT22;8501;49.926;8.404;2022-09-09T14:04:23;20.70;99.90
16767;DHT22;8501;49.926;8.404;2022-09-09T14:06:49;20.80;99.90
16767;DHT22;8501;49.926;8.404;2022-09-09T14:09:17;20.80;99.90
16767;DHT22;8501;49.926;8.404;2022-09-09T14:11:44;21.00;99.90
16767;DHT22;8501;49.926;8.404;2022-09-09T14:14:13;20.90;99.90
16767;DHT22;8501;49.926;8.404;2022-09-09T14:16:39;20.90;99.90
16767;DHT22;8501;49.926;8.404;2022-09-09T14:19:05;20.90;99.90
16767;DHT22;8501;49.926;8.404;2022-09-09T14:21:33;20.90;99.90
16767;DHT22;8501;49.926;8.404;2022-09-09T14:24:03;20.80;99.90
16767;DHT22;8501;49.926;8.404;2022-09-09T14:26:29;20.70;99.90
16767;DHT22;8501;49.926;8.404;2022-09-09T14:28:56;20.70;99.90
16767;DHT22;8501;49.926;8.404;2022-09-09T14:31:22;20.70;99.90
16767;DHT22;8501;49.926;8.404;2022-09-09T14:33:48;20.70;99.90
16767;DHT22;8501;49.926;8.404;2022-09-09T14:36:16;20.60;99.90
16767;DHT22;8501;49.926;8.404;2022-09-09T14:38:42;20.70;99.90
16767;DHT22;8501;49.926;8.404;2022-09-09T14:41:12;20.70;99.90
16767;DHT22;8501;49.926;8.404;2022-09-09T14:43:39;20.70;99.90
16767;DHT22;8501;49.926;8.404;2022-09-09T14:46:06;20.70;99.90
16767;DHT22;8501;49.926;8.404;2022-09-09T14:48:37;20.70;99.90
16767;DHT22;8501;49.926;8.404;2022-09-09T14:51:19;20.60;99.90
16767;DHT22;8501;49.926;8.404;2022-09-09T14:53:46;20.70;99.90
16767;DHT22;8501;49.926;8.404;2022-09-09T14:56:16;20.70;99.90
16767;DHT22;8501;49.926;8.404;2022-09-09T14:58:42;20.70;99.90
16767;DHT22;8501;49.926;8.404;2022-09-09T15:01:14;20.80;99.90
16767;DHT22;8501;49.926;8.404;2022-09-09T15:03:41;20.70;99.90
16767;DHT22;8501;49.926;8.404;2022-09-09T15:06:12;20.70;99.90
16767;DHT22;8501;49.926;8.404;2022-09-09T15:08:39;20.90;99.90
16767;DHT22;8501;49.926;8.404;2022-09-09T15:11:05;21.10;99.90
16767;DHT22;8501;49.926;8.404;2022-09-09T15:13:36;21.50;99.90
16767;DHT22;8501;49.926;8.404;2022-09-09T15:16:15;21.60;99.90
16767;DHT22;8501;49.926;8.404;2022-09-09T15:18:41;21.40;99.90
16767;DHT22;8501;49.926;8.404;2022-09-09T15:21:16;21.30;99.90
16767;DHT22;8501;49.926;8.404;2022-09-09T15:23:42;21.10;99.90
16767;DHT22;8501;49.926;8.404;2022-09-09T15:26:08;20.90;99.90
16767;DHT22;8501;49.926;8.404;2022-09-09T15:28:36;20.80;99.90
16767;DHT22;8501;49.926;8.404;2022-09-09T15:31:06;20.70;99.90
16767;DHT22;8501;49.926;8.404;2022-09-09T15:33:33;20.70;99.90
16767;DHT22;8501;49.926;8.404;2022-09-09T15:35:59;20.60;99.90
16767;DHT22;8501;49.926;8.404;2022-09-09T15:38:24;20.60;99.90
16767;DHT22;8501;49.926;8.404;2022-09-09T15:40:54;20.60;99.90
16767;DHT22;8501;49.926;8.404;2022-09-09T15:43:20;20.60;99.90
16767;DHT22;8501;49.926;8.404;2022-09-09T15:45:51;20.60;99.90
16767;DHT22;8501;49.926;8.404;2022-09-09T15:48:19;20.60;99.90
16767;DHT22;8501;49.926;8.404;2022-09-09T15:50:44;20.60;99.90
16767;DHT22;8501;49.926;8.404;2022-09-09T15:53:10;20.70;99.90
16767;DHT22;8501;49.926;8.404;2022-09-09T15:55:36;20.70;99.90
16767;DHT22;8501;49.926;8.404;2022-09-09T15:58:01;20.60;99.90
16767;DHT22;8501;49.926;8.404;2022-09-09T16:00:27;20.60;99.90
16767;DHT22;8501;49.926;8.404;2022-09-09T16:02:54;20.60;99.90
16767;DHT22;8501;49.926;8.404;2022-09-09T16:05:19;20.50;99.90
16767;DHT22;8501;49.926;8.404;2022-09-09T16:07:46;20.50;99.90
16767;DHT22;8501;49.926;8.404;2022-09-09T16:10:13;20.50;99.90
16767;DHT22;8501;49.926;8.404;2022-09-09T16:12:39;20.50;99.90
16767;DHT22;8501;49.926;8.404;2022-09-09T16:15:05;20.50;99.90
16767;DHT22;8501;49.926;8.404;2022-09-09T16:17:31;20.50;99.90
16767;DHT22;8501;49.926;8.404;2022-09-09T16:20:03;20.50;99.90
16767;DHT22;8501;49.926;8.404;2022-09-09T16:22:30;20.50;99.90
16767;DHT22;8501;49.926;8.404;2022-09-09T16:24:56;20.40;99.90
16767;DHT22;8501;49.926;8.404;2022-09-09T16:27:21;20.40;99.90
16767;DHT22;8501;49.926;8.404;2022-09-09T16:29:48;20.40;99.90
16767;DHT22;8501;49.926;8.404;2022-09-09T16:32:14;20.30;99.90
16767;DHT22;8501;49.926;8.404;2022-09-09T16:34:40;20.30;99.90
16767;DHT22;8501;49.926;8.404;2022-09-09T16:37:05;20.30;99.90
16767;DHT22;8501;49.926;8.404;2022-09-09T16:39:31;20.30;99.90
16767;DHT22;8501;49.926;8.404;2022-09-09T16:41:56;20.30;99.90
16767;DHT22;8501;49.926;8.404;2022-09-09T16:44:22;20.30;99.90
16767;DHT22;8501;49.926;8.404;2022-09-09T16:46:50;20.30;99.90
16767;DHT22;8501;49.926;8.404;2022-09-09T16:49:21;20.30;99.90
16767;DHT22;8501;49.926;8.404;2022-09-09T16:51:50;20.30;99.90
16767;DHT22;8501;49.926;8.404;2022-09-09T16:54:19;20.30;99.90
16767;DHT22;8501;49.926;8.404;2022-09-09T16:56:47;20.30;99.90
16767;DHT22;8501;49.926;8.404;2022-09-09T16:59:15;20.30;99.90
16767;DHT22;8501;49.926;8.404;2022-09-09T17:01:42;20.30;99.90
16767;DHT22;8501;49.926;8.404;2022-09-09T17:04:13;20.30;99.90
16767;DHT22;8501;49.926;8.404;2022-09-09T17:06:51;20.20;99.90
16767;DHT22;8501;49.926;8.404;2022-09-09T17:09:19;20.20;99.90
16767;DHT22;8501;49.926;8.404;2022-09-09T17:11:45;20.30;99.90
16767;DHT22;8501;49.926;8.404;2022-09-09T17:14:17;20.20;99.90
16767;DHT22;8501;49.926;8.404;2022-09-09T17:16:45;20.20;99.90
16767;DHT22;8501;49.926;8.404;2022-09-09T17:19:11;20.10;99.90
16767;DHT22;8501;49.926;8.404;2022-09-09T17:21:37;19.80;99.90
16767;DHT22;8501;49.926;8.404;2022-09-09T17:24:03;19.80;99.90
16767;DHT22;8501;49.926;8.404;2022-09-09T17:26:30;19.70;99.90
16767;DHT22;8501;49.926;8.404;2022-09-09T17:28:57;19.60;99.90
16767;DHT22;8501;49.926;8.404;2022-09-09T17:31:27;19.50;99.90
16767;DHT22;8501;49.926;8.404;2022-09-09T17:33:53;19.40;99.90
16767;DHT22;8501;49.926;8.404;2022-09-09T17:36:22;19.40;99.90